Historyczne dane pomiarowe

Dodano dane terminowe – wersja testowa.

Dane z okresu 1951-2019

Wersja bazy: 1.34 [2019-03-16, lista zmian], aktualizacja planowana na 2019-04-15

Dane meteo z obszaru Polski uzyskane na podstawie danych udostępnionych przez Instytut Meteorologii i Gospodarki Wodnej – Państwowy Instytut Badawczy.

 

Wybierz Datę:    

       

TemperaturaWilgotnośćWiatrCiśnienieOpadyŚniegCzas trwania zjawisk
 Stacja t tx tn tng RH VA  wxwx mslp ppp RRR   cm mm wxwxwxwxwxwxwx
1983-08-14 12.4 16.7 9.0 8.8 79.8- 6.3 2.3---- 0.0------------
1983-08-13 13.7 20.2 10.6 10.1 87.0- 8.0 3.0---- 5.3------------
1983-08-12 17.2 21.4 14.1 13.9 90.8- 8.0 0.7---- 7.5------------
1983-08-11 15.8 20.2 11.3 12.1 95.8- 8.0 2.3---- 27.5------------
1983-08-10 14.6 22.7 10.5 10.9 92.0- 8.0 2.0---- 4.8------------
1983-08-09 16.7 23.2 12.7 10.8 86.8- 7.3 1.7---- 1.6------------
1983-08-08 17.0 21.9 12.5 12.6 87.8- 7.3 1.7---- 0.0------------
1983-08-07 16.0 20.4 11.8 12.4 87.5- 7.3 1.7---- 5.9------------
1983-08-06 13.1 19.0 6.5 4.3 77.8- 6.7 1.0---- 0.0------------
1983-08-05 11.6 14.6 8.1 7.6 84.8- 6.7 1.3---- 0.0------------
1983-08-04 12.5 21.5 9.6 10.7 95.8- 8.0 2.3---- 6.6------------
1983-08-03 19.3 23.6 14.3 12.5 85.8- 6.7 2.7---- 3.9------------
1983-08-02 20.3 28.7 11.4 7.6 76.0- 2.0 0.3---- 0.0------------
1983-08-01 16.8 25.2 7.5 4.9 74.3- 0.0 0.7---- 0.0------------
1983-07-31 15.9 21.0 10.9 9.5 72.5- 3.3 0.7---- 0.0------------
1983-07-30 15.0 18.3 10.7 7.2 88.3- 6.0 2.7---- 2.3------------
1983-07-29 17.8 22.6 12.1 8.9 73.0- 3.3 1.0---- 0.4------------
1983-07-28 19.5 25.2 14.5 11.9 81.0- 6.0 1.7---- 2.8------------
1983-07-27 20.8 26.7 13.5 10.2 79.3- 1.0 0.7---- 0.0------------
1983-07-26 16.6 22.7 12.1 12.6 83.3- 7.3 1.7---- 0.0------------
1983-07-25 13.6 17.7 9.7 9.7 87.5- 6.3 2.0---- 1.2------------
1983-07-24 13.7 15.9 11.7 11.0 94.8- 8.0 1.7---- 0.7------------
1983-07-23 13.4 17.7 9.6 7.8 85.5- 7.7 2.0---- 8.8------------
1983-07-22 11.5 14.6 7.5 4.8 76.3- 8.0 2.3---- 18.9------------
1983-07-21 9.8 15.1 6.5 6.2 83.5- 8.0 2.3---- 2.5------------
1983-07-20 17.2 23.2 11.0 12.7 85.3- 8.0 1.3---- 4.7------------
1983-07-19 19.8 28.3 11.9 9.2 81.0- 2.7 0.7---- 2.1------------
1983-07-18 19.8 26.2 12.1 10.3 75.0- 3.7 0.3---- 0.0------------
1983-07-17 19.4 25.0 12.9 11.2 79.8- 5.3 1.0---- 0.0------------
1983-07-16 17.8 25.5 8.8 7.3 74.5- 2.0 0.0---- 0.0------------
1983-07-15 17.7 22.2 14.3 10.8 75.3- 3.7 1.7---- 0.0------------
1983-07-14 16.4 19.9 13.4 13.1 92.0- 8.0 2.0---- 14.5------------
1983-07-13 15.8 19.7 12.8 11.8 93.3- 7.7 1.0---- 1.1------------
1983-07-12 15.3 18.3 13.3 11.2 94.8- 7.3 1.0---- 26.2------------
1983-07-11 16.3 20.4 12.2 11.2 92.8- 5.7 1.3---- 4.8------------
1983-07-10 17.0 23.2 11.9 9.2 86.8- 4.0 0.7---- 12.7------------
1983-07-09 17.8 23.7 11.7 9.1 78.0- 1.3 0.3---- 0.0------------
1983-07-08 18.2 24.8 9.8 6.6 66.8- 0.0 0.7---- 0.0------------
1983-07-07 18.5 25.7 10.5 7.9 66.3- 0.3 1.0---- 0.0------------
1983-07-06 18.9 25.5 11.2 9.1 72.3- 0.0 1.0---- 0.0------------
1983-07-05 17.8 25.5 9.3 7.2 76.0- 2.7 0.0---- 0.0------------
1983-07-04 16.5 22.5 9.1 7.4 79.8- 4.0 0.7---- 0.0------------
1983-07-03 16.9 21.0 13.4 14.1 82.8- 5.3 2.0---- 0.0------------
1983-07-02 14.9 20.3 11.1 9.1 95.3- 8.0 0.3---- 18.8------------
1983-07-01 17.6 25.2 10.3 6.3 81.0- 2.7 0.7---- 0.0------------
1983-06-30 13.5 20.3 5.4 3.0 79.0- 3.3 1.7---- 0.0------------
1983-06-29 13.4 16.7 10.3 10.0 77.3- 7.3 1.3---- 0.0------------
1983-06-28 16.4 21.2 13.6 12.1 87.8- 8.0 2.7---- 10.9------------
1983-06-27 18.5 24.3 10.5 6.6 76.5- 3.3 1.7---- 0.5------------
1983-06-26 17.6 21.7 12.7 9.7 76.0- 4.7 1.3---- 4.4------------
1983-06-25 19.5 23.3 11.3 7.7 55.8- 0.0 4.3---- 0.0------------
1983-06-24 15.7 23.2 7.6 1.5 68.0- 1.0 1.7---- 0.0------------
1983-06-23 13.0 18.6 5.5 0.5 58.0- 0.3 2.7---- 0.0------------
1983-06-22 13.4 17.2 9.7 8.2 58.5- 0.0 3.0---- 0.0------------
1983-06-21 16.8 22.9 13.4 10.1 79.5- 5.7 1.0---- 0.0------------
1983-06-20 16.2 18.7 12.8 10.5 91.8- 8.0 0.7---- 6.9------------
1983-06-19 14.9 20.2 9.3 10.6 91.8- 8.0 2.0---- 4.5------------
1983-06-18 10.7 11.8 9.0 9.4 99.0- 8.0 4.0---- 45.6------------
1983-06-17 9.9 11.1 7.5 7.4 93.3- 8.0 3.3---- 9.8------------
1983-06-16 10.7 14.3 8.7 9.0 98.5- 8.0 3.0---- 19.6------------
326.1 ms

 

Źródłem pochodzenia danych jest Instytut Meteorologii i Gospodarki Wodnej – Państwowy Instytut Badawczy. Dane Instytutu Meteorologii i Gospodarki Wodnej – Państwowego Instytutu Badawczego zostały przetworzone.

Dane źródłowe można odnaleźć na stronie https://dane.imgw.pl